sensor_id;sensor_type;location;lat;lon;timestamp;pressure;altitude;pressure_sealevel;temperature;humidity
50933;BME280;36921;49.006;9.292;2023-02-17T00:00:58;99615.09;;;8.35;100.00
50933;BME280;36921;49.006;9.292;2023-02-17T00:03:25;99607.69;;;8.37;100.00
50933;BME280;36921;49.006;9.292;2023-02-17T00:05:50;99612.94;;;8.39;100.00
50933;BME280;36921;49.006;9.292;2023-02-17T00:08:16;99606.72;;;8.46;100.00
50933;BME280;36921;49.006;9.292;2023-02-17T00:10:41;99616.16;;;8.50;100.00
50933;BME280;36921;49.006;9.292;2023-02-17T00:13:07;99611.78;;;8.49;100.00
50933;BME280;36921;49.006;9.292;2023-02-17T00:15:32;99607.38;;;8.40;100.00
50933;BME280;36921;49.006;9.292;2023-02-17T00:17:58;99601.63;;;8.27;100.00
50933;BME280;36921;49.006;9.292;2023-02-17T00:20:23;99600.63;;;8.20;100.00
50933;BME280;36921;49.006;9.292;2023-02-17T00:22:48;99602.66;;;8.18;100.00
50933;BME280;36921;49.006;9.292;2023-02-17T00:25:20;99588.66;;;8.22;100.00
50933;BME280;36921;49.006;9.292;2023-02-17T00:27:45;99595.41;;;8.26;100.00
50933;BME280;36921;49.006;9.292;2023-02-17T00:30:17;99590.50;;;8.30;100.00
50933;BME280;36921;49.006;9.292;2023-02-17T00:32:42;99596.25;;;8.27;100.00
50933;BME280;36921;49.006;9.292;2023-02-17T00:35:21;99600.09;;;8.32;100.00
50933;BME280;36921;49.006;9.292;2023-02-17T00:37:53;99590.69;;;8.37;100.00
50933;BME280;36921;49.006;9.292;2023-02-17T00:40:18;99596.44;;;8.50;100.00
50933;BME280;36921;49.006;9.292;2023-02-17T00:42:44;99594.06;;;8.55;100.00
50933;BME280;36921;49.006;9.292;2023-02-17T00:45:09;99594.91;;;8.55;100.00
50933;BME280;36921;49.006;9.292;2023-02-17T00:47:35;99596.44;;;8.50;100.00
50933;BME280;36921;49.006;9.292;2023-02-17T00:50:00;99599.28;;;8.48;100.00
50933;BME280;36921;49.006;9.292;2023-02-17T00:52:25;99602.84;;;8.57;100.00
50933;BME280;36921;49.006;9.292;2023-02-17T00:54:51;99599.59;;;8.62;100.00
50933;BME280;36921;49.006;9.292;2023-02-17T00:57:16;99596.91;;;8.62;100.00
50933;BME280;36921;49.006;9.292;2023-02-17T00:59:41;99590.84;;;8.60;100.00
50933;BME280;36921;49.006;9.292;2023-02-17T01:02:07;99593.03;;;8.64;100.00
50933;BME280;36921;49.006;9.292;2023-02-17T01:04:32;99590.16;;;8.66;100.00
50933;BME280;36921;49.006;9.292;2023-02-17T01:06:58;99598.59;;;8.71;100.00
50933;BME280;36921;49.006;9.292;2023-02-17T01:09:23;99592.84;;;8.66;100.00
50933;BME280;36921;49.006;9.292;2023-02-17T01:11:49;99609.19;;;8.64;100.00
50933;BME280;36921;49.006;9.292;2023-02-17T01:14:14;99595.22;;;8.61;100.00
50933;BME280;36921;49.006;9.292;2023-02-17T01:16:44;99584.28;;;8.62;100.00
50933;BME280;36921;49.006;9.292;2023-02-17T01:19:12;99581.41;;;8.64;100.00
50933;BME280;36921;49.006;9.292;2023-02-17T01:21:38;99577.69;;;8.65;100.00
50933;BME280;36921;49.006;9.292;2023-02-17T01:24:05;99579.38;;;8.66;100.00
50933;BME280;36921;49.006;9.292;2023-02-17T01:26:33;99576.50;;;8.67;100.00
50933;BME280;36921;49.006;9.292;2023-02-17T01:28:59;99574.66;;;8.68;100.00
50933;BME280;36921;49.006;9.292;2023-02-17T01:31:25;99575.66;;;8.67;100.00
50933;BME280;36921;49.006;9.292;2023-02-17T01:33:52;99580.53;;;8.71;100.00
50933;BME280;36921;49.006;9.292;2023-02-17T01:36:19;99575.00;;;8.65;100.00
50933;BME280;36921;49.006;9.292;2023-02-17T01:38:44;99577.19;;;8.61;100.00
50933;BME280;36921;49.006;9.292;2023-02-17T01:41:15;99566.91;;;8.56;100.00
50933;BME280;36921;49.006;9.292;2023-02-17T01:43:41;99561.50;;;8.56;100.00
50933;BME280;36921;49.006;9.292;2023-02-17T01:46:07;99559.50;;;8.59;100.00
50933;BME280;36921;49.006;9.292;2023-02-17T01:48:48;99557.13;;;8.55;100.00
50933;BME280;36921;49.006;9.292;2023-02-17T01:51:19;99554.09;;;8.59;100.00
50933;BME280;36921;49.006;9.292;2023-02-17T01:53:50;99543.97;;;8.61;100.00
50933;BME280;36921;49.006;9.292;2023-02-17T01:56:16;99560.16;;;8.61;100.00
50933;BME280;36921;49.006;9.292;2023-02-17T01:58:46;99559.13;;;8.62;100.00
50933;BME280;36921;49.006;9.292;2023-02-17T02:01:14;99551.88;;;8.70;100.00
50933;BME280;36921;49.006;9.292;2023-02-17T02:03:42;99553.22;;;8.74;100.00
50933;BME280;36921;49.006;9.292;2023-02-17T02:06:12;99547.66;;;8.76;100.00
50933;BME280;36921;49.006;9.292;2023-02-17T02:09:10;99542.59;;;8.73;100.00
50933;BME280;36921;49.006;9.292;2023-02-17T02:11:34;99551.38;;;8.67;100.00
50933;BME280;36921;49.006;9.292;2023-02-17T02:14:00;99552.56;;;8.64;100.00
50933;BME280;36921;49.006;9.292;2023-02-17T02:16:37;99539.25;;;8.63;100.00
50933;BME280;36921;49.006;9.292;2023-02-17T02:34:14;99532.88;;;8.47;100.00
50933;BME280;36921;49.006;9.292;2023-02-17T02:37:01;99543.16;;;8.52;100.00
50933;BME280;36921;49.006;9.292;2023-02-17T02:39:36;99525.13;;;8.52;100.00
50933;BME280;36921;49.006;9.292;2023-02-17T02:42:14;99535.09;;;8.44;100.00
50933;BME280;36921;49.006;9.292;2023-02-17T02:44:41;99529.88;;;8.42;100.00
50933;BME280;36921;49.006;9.292;2023-02-17T02:50:13;99509.13;;;8.43;100.00
50933;BME280;36921;49.006;9.292;2023-02-17T02:58:20;99513.16;;;8.30;100.00
50933;BME280;36921;49.006;9.292;2023-02-17T03:08:50;99496.31;;;8.37;100.00
50933;BME280;36921;49.006;9.292;2023-02-17T03:11:16;99489.06;;;8.37;100.00
50933;BME280;36921;49.006;9.292;2023-02-17T03:13:59;99491.44;;;8.40;100.00
50933;BME280;36921;49.006;9.292;2023-02-17T03:16:25;99494.44;;;8.37;100.00
50933;BME280;36921;49.006;9.292;2023-02-17T03:18:51;99489.41;;;8.34;100.00
50933;BME280;36921;49.006;9.292;2023-02-17T03:21:17;99485.69;;;8.35;100.00
50933;BME280;36921;49.006;9.292;2023-02-17T03:23:43;99495.66;;;8.43;100.00
50933;BME280;36921;49.006;9.292;2023-02-17T03:26:09;99490.59;;;8.40;100.00
50933;BME280;36921;49.006;9.292;2023-02-17T03:28:35;99484.84;;;8.43;100.00
50933;BME280;36921;49.006;9.292;2023-02-17T03:31:00;99488.91;;;8.47;100.00
50933;BME280;36921;49.006;9.292;2023-02-17T03:33:25;99496.47;;;8.43;100.00
50933;BME280;36921;49.006;9.292;2023-02-17T03:35:51;99504.56;;;8.35;100.00
50933;BME280;36921;49.006;9.292;2023-02-17T03:38:16;99507.44;;;8.33;100.00
50933;BME280;36921;49.006;9.292;2023-02-17T03:40:41;99504.94;;;8.24;100.00
50933;BME280;36921;49.006;9.292;2023-02-17T03:43:07;99509.47;;;8.23;100.00
50933;BME280;36921;49.006;9.292;2023-02-17T03:45:35;99504.44;;;8.28;100.00
50933;BME280;36921;49.006;9.292;2023-02-17T03:48:01;99491.44;;;8.32;100.00
50933;BME280;36921;49.006;9.292;2023-02-17T03:50:26;99486.19;;;8.30;100.00
50933;BME280;36921;49.006;9.292;2023-02-17T03:52:52;99502.06;;;8.25;100.00
50933;BME280;36921;49.006;9.292;2023-02-17T03:55:18;99508.78;;;8.29;100.00
50933;BME280;36921;49.006;9.292;2023-02-17T03:57:43;99509.97;;;8.27;100.00
50933;BME280;36921;49.006;9.292;2023-02-17T04:00:09;99510.81;;;8.27;100.00
50933;BME280;36921;49.006;9.292;2023-02-17T04:02:34;99505.94;;;8.31;100.00
50933;BME280;36921;49.006;9.292;2023-02-17T04:05:00;99509.97;;;8.27;100.00
50933;BME280;36921;49.006;9.292;2023-02-17T04:07:26;99511.16;;;8.24;100.00
50933;BME280;36921;49.006;9.292;2023-02-17T04:09:52;99511.34;;;8.23;100.00
50933;BME280;36921;49.006;9.292;2023-02-17T04:12:17;99516.72;;;8.23;100.00
50933;BME280;36921;49.006;9.292;2023-02-17T04:14:43;99515.38;;;8.27;100.00
50933;BME280;36921;49.006;9.292;2023-02-17T04:17:08;99517.91;;;8.28;100.00
50933;BME280;36921;49.006;9.292;2023-02-17T04:19:33;99510.31;;;8.32;100.00
50933;BME280;36921;49.006;9.292;2023-02-17T04:21:59;99515.19;;;8.37;100.00
50933;BME280;36921;49.006;9.292;2023-02-17T04:24:24;99511.16;;;8.41;100.00
50933;BME280;36921;49.006;9.292;2023-02-17T04:26:49;99512.84;;;8.42;100.00
50933;BME280;36921;49.006;9.292;2023-02-17T04:29:15;99514.38;;;8.44;100.00
50933;BME280;36921;49.006;9.292;2023-02-17T04:31:40;99510.84;;;8.44;100.00
50933;BME280;36921;49.006;9.292;2023-02-17T04:34:06;99502.75;;;8.44;100.00
50933;BME280;36921;49.006;9.292;2023-02-17T04:36:31;99502.91;;;8.42;100.00
50933;BME280;36921;49.006;9.292;2023-02-17T04:38:56;99493.63;;;8.45;100.00
50933;BME280;36921;49.006;9.292;2023-02-17T04:41:22;99501.88;;;8.43;100.00
50933;BME280;36921;49.006;9.292;2023-02-17T04:43:47;99504.91;;;8.40;100.00
50933;BME280;36921;49.006;9.292;2023-02-17T04:46:12;99503.94;;;8.41;100.00
50933;BME280;36921;49.006;9.292;2023-02-17T04:48:38;99501.38;;;8.48;100.00
50933;BME280;36921;49.006;9.292;2023-02-17T04:51:03;99507.59;;;8.48;100.00
50933;BME280;36921;49.006;9.292;2023-02-17T04:53:29;99492.28;;;8.49;100.00
50933;BME280;36921;49.006;9.292;2023-02-17T04:55:54;99491.59;;;8.47;100.00
50933;BME280;36921;49.006;9.292;2023-02-17T04:58:20;99488.06;;;8.46;100.00
50933;BME280;36921;49.006;9.292;2023-02-17T05:00:47;99488.91;;;8.47;100.00
50933;BME280;36921;49.006;9.292;2023-02-17T05:03:13;99489.41;;;8.42;100.00
50933;BME280;36921;49.006;9.292;2023-02-17T05:05:38;99480.28;;;8.35;100.00
50933;BME280;36921;49.006;9.292;2023-02-17T05:08:04;99493.31;;;8.40;100.00
50933;BME280;36921;49.006;9.292;2023-02-17T05:10:30;99496.16;;;8.46;100.00
50933;BME280;36921;49.006;9.292;2023-02-17T05:12:55;99503.56;;;8.44;100.00
50933;BME280;36921;49.006;9.292;2023-02-17T05:15:20;99501.88;;;8.35;100.00
50933;BME280;36921;49.006;9.292;2023-02-17T05:17:46;99499.50;;;8.32;100.00
50933;BME280;36921;49.006;9.292;2023-02-17T05:20:11;99511.47;;;8.29;100.00
50933;BME280;36921;49.006;9.292;2023-02-17T05:22:37;99514.34;;;8.36;100.00
50933;BME280;36921;49.006;9.292;2023-02-17T05:25:03;99510.97;;;8.34;100.00
50933;BME280;36921;49.006;9.292;2023-02-17T05:27:28;99518.03;;;8.35;100.00
50933;BME280;36921;49.006;9.292;2023-02-17T05:29:54;99521.78;;;8.42;100.00
50933;BME280;36921;49.006;9.292;2023-02-17T05:32:19;99512.31;;;8.30;100.00
50933;BME280;36921;49.006;9.292;2023-02-17T05:34:46;99515.22;;;8.28;100.00
50933;BME280;36921;49.006;9.292;2023-02-17T05:37:11;99513.47;;;8.35;100.00
50933;BME280;36921;49.006;9.292;2023-02-17T05:39:36;99494.47;;;8.29;100.00
50933;BME280;36921;49.006;9.292;2023-02-17T05:42:02;99514.84;;;8.31;100.00
50933;BME280;36921;49.006;9.292;2023-02-17T05:44:27;99514.50;;;8.34;100.00
50933;BME280;36921;49.006;9.292;2023-02-17T05:46:53;99510.63;;;8.53;100.00
50933;BME280;36921;49.006;9.292;2023-02-17T05:49:41;99513.63;;;8.59;100.00
50933;BME280;36921;49.006;9.292;2023-02-17T05:52:06;99513.94;;;8.72;100.00
50933;BME280;36921;49.006;9.292;2023-02-17T05:54:32;99514.09;;;8.78;100.00
50933;BME280;36921;49.006;9.292;2023-02-17T05:56:57;99523.50;;;8.83;100.00
50933;BME280;36921;49.006;9.292;2023-02-17T05:59:24;99529.09;;;8.81;100.00
50933;BME280;36921;49.006;9.292;2023-02-17T06:01:49;99525.69;;;8.87;100.00
50933;BME280;36921;49.006;9.292;2023-02-17T06:04:14;99525.19;;;8.84;100.00
50933;BME280;36921;49.006;9.292;2023-02-17T06:06:40;99529.09;;;8.81;100.00
50933;BME280;36921;49.006;9.292;2023-02-17T06:09:05;99527.91;;;8.84;100.00
50933;BME280;36921;49.006;9.292;2023-02-17T06:11:31;99532.78;;;8.80;100.00
50933;BME280;36921;49.006;9.292;2023-02-17T06:13:56;99529.47;;;8.70;100.00
50933;BME280;36921;49.006;9.292;2023-02-17T06:16:22;99542.25;;;8.76;100.00
50933;BME280;36921;49.006;9.292;2023-02-17T06:18:47;99536.50;;;8.79;100.00
50933;BME280;36921;49.006;9.292;2023-02-17T06:21:12;99538.19;;;8.80;100.00
50933;BME280;36921;49.006;9.292;2023-02-17T06:23:38;99544.94;;;8.84;100.00
50933;BME280;36921;49.006;9.292;2023-02-17T06:26:03;99540.03;;;8.80;100.00
50933;BME280;36921;49.006;9.292;2023-02-17T06:28:28;99539.56;;;8.76;100.00
50933;BME280;36921;49.006;9.292;2023-02-17T06:30:55;99540.56;;;8.83;100.00
50933;BME280;36921;49.006;9.292;2023-02-17T06:33:21;99540.22;;;8.78;100.00
50933;BME280;36921;49.006;9.292;2023-02-17T06:35:49;99539.56;;;8.76;100.00
50933;BME280;36921;49.006;9.292;2023-02-17T06:38:15;99539.72;;;8.74;100.00
50933;BME280;36921;49.006;9.292;2023-02-17T06:40:41;99542.38;;;8.83;100.00
50933;BME280;36921;49.006;9.292;2023-02-17T06:43:06;99551.34;;;8.83;100.00
50933;BME280;36921;49.006;9.292;2023-02-17T06:45:32;99556.91;;;8.82;100.00
50933;BME280;36921;49.006;9.292;2023-02-17T06:47:57;99552.84;;;8.86;100.00
50933;BME280;36921;49.006;9.292;2023-02-17T06:50:23;99547.94;;;8.89;100.00
50933;BME280;36921;49.006;9.292;2023-02-17T06:52:48;99557.72;;;8.90;100.00
50933;BME280;36921;49.006;9.292;2023-02-17T06:55:14;99554.84;;;8.92;100.00
50933;BME280;36921;49.006;9.292;2023-02-17T06:57:39;99555.69;;;8.92;100.00
50933;BME280;36921;49.006;9.292;2023-02-17T07:00:05;99551.63;;;8.96;100.00
50933;BME280;36921;49.006;9.292;2023-02-17T07:02:31;99546.56;;;9.02;100.00
50933;BME280;36921;49.006;9.292;2023-02-17T07:04:56;99556.00;;;8.97;100.00
50933;BME280;36921;49.006;9.292;2023-02-17T07:07:22;99554.28;;;9.05;100.00
50933;BME280;36921;49.006;9.292;2023-02-17T07:09:47;99539.69;;;8.91;100.00
50933;BME280;36921;49.006;9.292;2023-02-17T07:12:12;99570.13;;;9.08;100.00
50933;BME280;36921;49.006;9.292;2023-02-17T07:14:48;99563.19;;;9.13;100.00
50933;BME280;36921;49.006;9.292;2023-02-17T07:17:14;99574.66;;;9.15;100.00
50933;BME280;36921;49.006;9.292;2023-02-17T07:19:39;99563.81;;;9.24;100.00
50933;BME280;36921;49.006;9.292;2023-02-17T07:22:05;99579.88;;;9.25;100.00
50933;BME280;36921;49.006;9.292;2023-02-17T07:24:31;99576.59;;;9.30;100.00
50933;BME280;36921;49.006;9.292;2023-02-17T07:26:58;99574.59;;;9.32;100.00
50933;BME280;36921;49.006;9.292;2023-02-17T07:29:26;99585.38;;;9.32;100.00
50933;BME280;36921;49.006;9.292;2023-02-17T07:31:52;99577.13;;;9.33;100.00
50933;BME280;36921;49.006;9.292;2023-02-17T07:34:17;99574.22;;;9.35;100.00
50933;BME280;36921;49.006;9.292;2023-02-17T07:36:43;99588.59;;;9.35;100.00
50933;BME280;36921;49.006;9.292;2023-02-17T07:39:08;99583.78;;;9.46;100.00
50933;BME280;36921;49.006;9.292;2023-02-17T07:41:40;99578.38;;;9.46;100.00
50933;BME280;36921;49.006;9.292;2023-02-17T07:44:05;99578.06;;;9.49;100.00
50933;BME280;36921;49.006;9.292;2023-02-17T07:46:31;99585.81;;;9.52;100.00
50933;BME280;36921;49.006;9.292;2023-02-17T07:48:57;99573.91;;;9.61;100.00
50933;BME280;36921;49.006;9.292;2023-02-17T07:51:23;99574.94;;;9.60;100.00
50933;BME280;36921;49.006;9.292;2023-02-17T07:53:49;99571.78;;;9.56;100.00
50933;BME280;36921;49.006;9.292;2023-02-17T07:56:17;99575.63;;;9.62;100.00
50933;BME280;36921;49.006;9.292;2023-02-17T07:58:43;99570.31;;;9.69;100.00
50933;BME280;36921;49.006;9.292;2023-02-17T08:01:15;99583.13;;;9.75;100.00
50933;BME280;36921;49.006;9.292;2023-02-17T08:03:41;99587.38;;;9.92;100.00
50933;BME280;36921;49.006;9.292;2023-02-17T08:06:25;99589.88;;;10.02;100.00
50933;BME280;36921;49.006;9.292;2023-02-17T08:08:51;99586.84;;;9.97;100.00
50933;BME280;36921;49.006;9.292;2023-02-17T08:11:36;99583.78;;;10.00;100.00
50933;BME280;36921;49.006;9.292;2023-02-17T08:14:22;99596.31;;;10.01;100.00
50933;BME280;36921;49.006;9.292;2023-02-17T08:16:48;99596.78;;;10.04;100.00
50933;BME280;36921;49.006;9.292;2023-02-17T08:19:13;99589.78;;;10.10;100.00
50933;BME280;36921;49.006;9.292;2023-02-17T08:21:39;99595.56;;;10.07;100.00
50933;BME280;36921;49.006;9.292;2023-02-17T08:24:05;99592.97;;;10.14;100.00
50933;BME280;36921;49.006;9.292;2023-02-17T08:26:30;99591.47;;;10.11;100.00
50933;BME280;36921;49.006;9.292;2023-02-17T08:28:56;99605.13;;;10.18;100.00
50933;BME280;36921;49.006;9.292;2023-02-17T08:31:25;99603.91;;;10.20;100.00
50933;BME280;36921;49.006;9.292;2023-02-17T08:33:51;99601.38;;;10.19;100.00
50933;BME280;36921;49.006;9.292;2023-02-17T08:36:18;99604.09;;;10.19;100.00
50933;BME280;36921;49.006;9.292;2023-02-17T08:38:47;99601.59;;;10.17;100.00
50933;BME280;36921;49.006;9.292;2023-02-17T08:43:49;99605.00;;;10.34;100.00
50933;BME280;36921;49.006;9.292;2023-02-17T08:46:16;99601.69;;;10.47;100.00
50933;BME280;36921;49.006;9.292;2023-02-17T08:48:42;99597.22;;;10.54;100.00
50933;BME280;36921;49.006;9.292;2023-02-17T08:51:14;99593.22;;;10.65;100.00
50933;BME280;36921;49.006;9.292;2023-02-17T08:53:40;99596.84;;;10.57;100.00
50933;BME280;36921;49.006;9.292;2023-02-17T08:56:10;99591.44;;;10.57;100.00
50933;BME280;36921;49.006;9.292;2023-02-17T08:58:35;99588.91;;;10.56;100.00
50933;BME280;36921;49.006;9.292;2023-02-17T09:01:01;99596.28;;;10.47;100.00
50933;BME280;36921;49.006;9.292;2023-02-17T09:03:26;99591.69;;;10.33;100.00
50933;BME280;36921;49.006;9.292;2023-02-17T09:05:54;99595.63;;;10.22;100.00
50933;BME280;36921;49.006;9.292;2023-02-17T09:08:19;99602.03;;;10.21;100.00
50933;BME280;36921;49.006;9.292;2023-02-17T09:10:45;99600.84;;;10.23;100.00
50933;BME280;36921;49.006;9.292;2023-02-17T09:13:11;99608.25;;;10.29;100.00
50933;BME280;36921;49.006;9.292;2023-02-17T09:15:37;99611.75;;;10.38;100.00
50933;BME280;36921;49.006;9.292;2023-02-17T09:18:02;99616.63;;;10.43;100.00
50933;BME280;36921;49.006;9.292;2023-02-17T09:20:28;99621.38;;;10.41;100.00
50933;BME280;36921;49.006;9.292;2023-02-17T09:22:53;99628.66;;;10.40;100.00
50933;BME280;36921;49.006;9.292;2023-02-17T09:25:19;99621.06;;;10.36;100.00
50933;BME280;36921;49.006;9.292;2023-02-17T09:27:44;99625.97;;;10.32;100.00
50933;BME280;36921;49.006;9.292;2023-02-17T09:30:10;99631.16;;;10.42;100.00
50933;BME280;36921;49.006;9.292;2023-02-17T09:32:36;99636.19;;;10.45;100.00
50933;BME280;36921;49.006;9.292;2023-02-17T09:35:01;99632.13;;;10.49;100.00
50933;BME280;36921;49.006;9.292;2023-02-17T09:37:31;99623.16;;;10.48;100.00
50933;BME280;36921;49.006;9.292;2023-02-17T09:39:56;99623.78;;;10.50;100.00
50933;BME280;36921;49.006;9.292;2023-02-17T09:42:23;99623.63;;;10.52;100.00
50933;BME280;36921;49.006;9.292;2023-02-17T09:44:55;99616.63;;;10.58;100.00
50933;BME280;36921;49.006;9.292;2023-02-17T09:47:26;99620.38;;;10.71;100.00
50933;BME280;36921;49.006;9.292;2023-02-17T09:50:22;99622.66;;;10.83;100.00
50933;BME280;36921;49.006;9.292;2023-02-17T09:53:02;99621.91;;;10.89;100.00
50933;BME280;36921;49.006;9.292;2023-02-17T09:55:37;99618.91;;;10.84;100.00
50933;BME280;36921;49.006;9.292;2023-02-17T09:58:15;99617.34;;;10.74;100.00
50933;BME280;36921;49.006;9.292;2023-02-17T10:00:51;99624.50;;;10.67;100.00
50933;BME280;36921;49.006;9.292;2023-02-17T10:06:21;99631.38;;;10.93;100.00
50933;BME280;36921;49.006;9.292;2023-02-17T10:14:05;99623.41;;;11.36;100.00
50933;BME280;36921;49.006;9.292;2023-02-17T10:16:36;99625.38;;;11.27;100.00
50933;BME280;36921;49.006;9.292;2023-02-17T10:19:29;99620.03;;;11.34;100.00
50933;BME280;36921;49.006;9.292;2023-02-17T10:22:17;99614.28;;;11.22;100.00
50933;BME280;36921;49.006;9.292;2023-02-17T10:24:43;99609.66;;;11.52;100.00
50933;BME280;36921;49.006;9.292;2023-02-17T10:29:54;99614.84;;;12.05;100.00
50933;BME280;36921;49.006;9.292;2023-02-17T10:32:25;99626.69;;;12.40;100.00
50933;BME280;36921;49.006;9.292;2023-02-17T10:35:13;99618.16;;;12.22;100.00
50933;BME280;36921;49.006;9.292;2023-02-17T10:37:46;99628.38;;;11.98;100.00
50933;BME280;36921;49.006;9.292;2023-02-17T10:40:20;99627.19;;;11.71;100.00
50933;BME280;36921;49.006;9.292;2023-02-17T10:42:49;99614.78;;;11.62;100.00
50933;BME280;36921;49.006;9.292;2023-02-17T10:45:34;99605.25;;;11.66;100.00
50933;BME280;36921;49.006;9.292;2023-02-17T10:50:31;99597.88;;;11.96;100.00
50933;BME280;36921;49.006;9.292;2023-02-17T10:52:57;99596.34;;;11.87;100.00
50933;BME280;36921;49.006;9.292;2023-02-17T10:55:40;99586.00;;;12.19;100.00
50933;BME280;36921;49.006;9.292;2023-02-17T10:58:13;99584.56;;;12.23;100.00
50933;BME280;36921;49.006;9.292;2023-02-17T11:00:42;99582.53;;;12.03;100.00
50933;BME280;36921;49.006;9.292;2023-02-17T11:03:19;99577.38;;;11.72;100.00
50933;BME280;36921;49.006;9.292;2023-02-17T11:05:52;99582.22;;;11.77;100.00
50933;BME280;36921;49.006;9.292;2023-02-17T11:08:44;99565.91;;;11.92;100.00
50933;BME280;36921;49.006;9.292;2023-02-17T11:11:21;99581.59;;;11.96;100.00
50933;BME280;36921;49.006;9.292;2023-02-17T11:19:33;99583.16;;;12.27;100.00
50933;BME280;36921;49.006;9.292;2023-02-17T11:25:00;99581.72;;;12.10;100.00
50933;BME280;36921;49.006;9.292;2023-02-17T11:27:27;99578.63;;;11.91;100.00
50933;BME280;36921;49.006;9.292;2023-02-17T11:29:52;99585.09;;;11.75;100.00
50933;BME280;36921;49.006;9.292;2023-02-17T11:32:51;99584.78;;;11.63;100.00
50933;BME280;36921;49.006;9.292;2023-02-17T11:35:43;99583.34;;;11.68;100.00
50933;BME280;36921;49.006;9.292;2023-02-17T11:38:15;99569.94;;;11.81;100.00
50933;BME280;36921;49.006;9.292;2023-02-17T11:40:51;99578.72;;;11.83;100.00
50933;BME280;36921;49.006;9.292;2023-02-17T11:43:16;99574.97;;;11.99;100.00
50933;BME280;36921;49.006;9.292;2023-02-17T11:45:57;99576.31;;;12.10;100.00
50933;BME280;36921;49.006;9.292;2023-02-17T11:54:03;99573.91;;;12.71;100.00
50933;BME280;36921;49.006;9.292;2023-02-17T11:56:36;99568.91;;;12.75;100.00
50933;BME280;36921;49.006;9.292;2023-02-17T11:59:35;99560.00;;;12.87;100.00
50933;BME280;36921;49.006;9.292;2023-02-17T12:02:37;99553.13;;;12.91;100.00
50933;BME280;36921;49.006;9.292;2023-02-17T12:18:28;99555.53;;;13.14;100.00
50933;BME280;36921;49.006;9.292;2023-02-17T12:24:40;99543.34;;;13.38;100.00
50933;BME280;36921;49.006;9.292;2023-02-17T12:38:33;99526.34;;;13.98;100.00
50933;BME280;36921;49.006;9.292;2023-02-17T12:43:48;99540.38;;;14.48;100.00
50933;BME280;36921;49.006;9.292;2023-02-17T12:46:22;99530.94;;;14.84;100.00
50933;BME280;36921;49.006;9.292;2023-02-17T12:51:54;99539.38;;;14.62;100.00
50933;BME280;36921;49.006;9.292;2023-02-17T12:54:30;99530.56;;;14.20;100.00
50933;BME280;36921;49.006;9.292;2023-02-17T12:57:11;99541.00;;;14.50;100.00
50933;BME280;36921;49.006;9.292;2023-02-17T12:59:43;99532.00;;;14.56;100.00
50933;BME280;36921;49.006;9.292;2023-02-17T13:02:15;99526.78;;;14.41;100.00
50933;BME280;36921;49.006;9.292;2023-02-17T13:04:44;99531.78;;;14.38;100.00
50933;BME280;36921;49.006;9.292;2023-02-17T13:09:48;99531.19;;;14.36;100.00
50933;BME280;36921;49.006;9.292;2023-02-17T13:14:56;99526.56;;;14.16;100.00
50933;BME280;36921;49.006;9.292;2023-02-17T13:17:28;99533.44;;;13.99;100.00
50933;BME280;36921;49.006;9.292;2023-02-17T13:20:25;99524.25;;;14.07;100.00
50933;BME280;36921;49.006;9.292;2023-02-17T13:23:03;99530.97;;;14.31;100.00
50933;BME280;36921;49.006;9.292;2023-02-17T13:25:32;99521.75;;;14.25;100.00
50933;BME280;36921;49.006;9.292;2023-02-17T13:28:00;99527.41;;;14.30;100.00
50933;BME280;36921;49.006;9.292;2023-02-17T13:30:40;99536.81;;;14.01;100.00
50933;BME280;36921;49.006;9.292;2023-02-17T13:35:44;99514.59;;;14.84;100.00
50933;BME280;36921;49.006;9.292;2023-02-17T13:38:09;99520.44;;;14.87;100.00
50933;BME280;36921;49.006;9.292;2023-02-17T13:40:38;99510.81;;;15.37;100.00
50933;BME280;36921;49.006;9.292;2023-02-17T13:43:18;99516.25;;;16.38;100.00
50933;BME280;36921;49.006;9.292;2023-02-17T13:45:47;99499.56;;;16.72;100.00
50933;BME280;36921;49.006;9.292;2023-02-17T13:48:25;99498.63;;;16.34;100.00
50933;BME280;36921;49.006;9.292;2023-02-17T13:50:57;99503.66;;;15.42;100.00
50933;BME280;36921;49.006;9.292;2023-02-17T13:53:29;99505.25;;;15.18;100.00
50933;BME280;36921;49.006;9.292;2023-02-17T13:56:00;99504.09;;;14.94;100.00
50933;BME280;36921;49.006;9.292;2023-02-17T13:58:37;99495.19;;;15.19;100.00
50933;BME280;36921;49.006;9.292;2023-02-17T14:01:05;99498.19;;;14.97;100.00
50933;BME280;36921;49.006;9.292;2023-02-17T14:03:42;99497.47;;;15.22;100.00
50933;BME280;36921;49.006;9.292;2023-02-17T14:06:35;99491.00;;;15.16;100.00
50933;BME280;36921;49.006;9.292;2023-02-17T14:08:58;99494.53;;;15.17;100.00
50933;BME280;36921;49.006;9.292;2023-02-17T14:11:26;99491.56;;;15.31;100.00
50933;BME280;36921;49.006;9.292;2023-02-17T14:13:54;99492.41;;;14.67;100.00
50933;BME280;36921;49.006;9.292;2023-02-17T14:16:36;99503.31;;;14.47;100.00
50933;BME280;36921;49.006;9.292;2023-02-17T14:19:10;99484.91;;;14.02;100.00
50933;BME280;36921;49.006;9.292;2023-02-17T14:21:39;99485.13;;;14.01;100.00
50933;BME280;36921;49.006;9.292;2023-02-17T14:24:05;99493.28;;;14.28;100.00
50933;BME280;36921;49.006;9.292;2023-02-17T14:29:08;99487.22;;;14.39;100.00
50933;BME280;36921;49.006;9.292;2023-02-17T14:34:30;99480.44;;;14.75;100.00
50933;BME280;36921;49.006;9.292;2023-02-17T14:37:09;99473.88;;;14.96;100.00
50933;BME280;36921;49.006;9.292;2023-02-17T14:39:35;99491.03;;;15.03;100.00
50933;BME280;36921;49.006;9.292;2023-02-17T14:42:00;99483.25;;;15.13;100.00
50933;BME280;36921;49.006;9.292;2023-02-17T14:44:26;99466.28;;;15.49;100.00
50933;BME280;36921;49.006;9.292;2023-02-17T14:46:51;99475.56;;;14.90;100.00
50933;BME280;36921;49.006;9.292;2023-02-17T14:49:16;99484.59;;;14.90;100.00
50933;BME280;36921;49.006;9.292;2023-02-17T14:51:42;99474.22;;;14.54;100.00
50933;BME280;36921;49.006;9.292;2023-02-17T14:54:13;99472.31;;;14.48;100.00